Terminal Aerodrome Forecast
Issued by NWS

Home | Current Version | Previous Version | Text Only | Print | Product List | Glossary On
Versions: 1 2 3 4 5 6 7 8 9 10 11 12 13 14
723
FTUS41 KBTV 162320
TAFRUT
TAF
KRUT 162320Z 1700/1724 VRB03KT P6SM FEW250
     FM171700 11004KT P6SM VCSH BKN200
     FM171900 12006KT 1SM -SN BR OVC040
     FM172200 12010G16KT 1SM -SN BR OVC035=

USA.gov is the U.S. government's official web portal to all federal, state and local government web resources and services.